Nearby METAR Reports

 

EGMC - Southend-On-Sea, United Kingdom
Distance from station: NE 10km
Updated: 25/06/2021 03:20
Partly cloudy
Partly cloudy
 Wind from SW
Wind: SW 7 mph , 11 km/h
Temperature: 16°C
Dew Point: 14°C
Humidity: 88%
Barometer: 1017 hPa
Clouds: Partly cloudy
Visibility: 6 miles , 10 km
Cloud details: Few Clouds 1067 m
Partly cloudy 1189 m
2021/06/25 02:20 EGMC 250220Z 23006KT 9999 FEW035 SCT039 16/14 Q1017
EGLC - London City Airp, United Kingdom
Distance from station: W 37km
Updated: 25/06/2021 03:20
Light rain, Clear
Light rain, Clear
 Wind from WSW
Wind: WSW 10 mph , 17 km/h
Temperature: 16°C
Dew Point: 10°C
Humidity: 68%
Barometer: 1017 hPa
Summary: Light rain
Clouds: Clear
Visibility: 6 miles , 10 km
2021/06/25 02:20 EGLC 250220Z AUTO 24009KT 9999 -RA NCD 16/10 Q1017
EGKB - Biggin Hill, United Kingdom
Distance from station: WSW 45km
Updated: 24/06/2021 22:20
NOT Current
Partly cloudy
Partly cloudy
 Wind from SSW
Wind: SSW 9 mph , 15 km/h
Temperature: 16°C
Dew Point: 13°C
Humidity: 83%
Barometer: 1020 hPa
Clouds: Partly cloudy
Visibility: 6 miles , 10 km
Cloud details: Partly cloudy 1463 m
2021/06/24 21:20 EGKB 242120Z 20008KT 9999 SCT048 16/13 Q1020
 
EGSS - Stansted Airport, United Kingdom
Distance from station: NNW 48km
Updated: 25/06/2021 03:20
Light rain, Partly cloudy
Light rain, Partly cloudy
 Wind from SW
Wind: SW 6 mph , 9 km/h
Temperature: 16°C
Dew Point: 15°C
Humidity: 94%
Barometer: 1017 hPa
Summary: Light rain
Clouds: Partly cloudy
Visibility: 5 miles , 8 km
Cloud details: Few Clouds 305 m
Partly cloudy 945 m
2021/06/25 02:20 EGSS 250220Z AUTO 23005KT 8000 -RA FEW010 SCT031 16/15 Q1017
EGKK - London/Gatwick A, United Kingdom
Distance from station: SW 67km
Updated: 25/06/2021 03:20
Light rain, Partly cloudy
Light rain, Partly cloudy
 Wind from WSW
Wind: WSW 6 mph , 9 km/h
Temperature: 15°C
Dew Point: 11°C
Humidity: 77%
Barometer: 1018 hPa
Summary: Light rain
Clouds: Partly cloudy
Visibility: 6 miles , 10 km
2021/06/25 02:20 EGKK 250220Z 24005KT 9999 -RA NSC 15/11 Q1018
EGMD - Lydd Airport, United Kingdom
Distance from station: SSE 67km
Updated: 25/06/2021 03:20
Overcast
Overcast
 Wind from SW
Wind: SW 10 mph , 17 km/h
Temperature: 16°C
Dew Point: 15°C
Humidity: 94%
Barometer: 1018 hPa
Clouds: Overcast
Visibility: 6 miles , 10 km
Cloud details: Mostly cloudy 945 m
Overcast 1097 m
2021/06/25 02:20 EGMD 250220Z AUTO 23009KT 9999 BKN031/// OVC036/// 16/15 Q1018
 
EGWU - Northolt Raf, United Kingdom
Distance from station: W 69km
Updated: 25/06/2021 02:50
Overcast
Overcast
 Wind from W
Wind: W 10 mph , 17 km/h
Temperature: 15°C
Dew Point: 9°C
Humidity: 68%
Barometer: 1017 hPa
Clouds: Overcast
Visibility: 6 miles , 10 km
Cloud details: Overcast 1829 m
2021/06/25 01:50 EGWU 250150Z AUTO 26009KT 9999 // OVC060/// 15/09 Q1017
EGLL - London/Heathrow, United Kingdom
Distance from station: W 72km
Updated: 25/06/2021 03:20
Clear
Clear
 Wind from WSW
Wind: WSW 7 mph , 11 km/h
Temperature: 14°C
Dew Point: 9°C
Humidity: 72%
Barometer: 1018 hPa
Clouds: Clear
Visibility: 6 miles , 10 km
2021/06/25 02:20 EGLL 250220Z AUTO 25006KT 9999 NCD 14/09 Q1018 NOSIG
EGUW - Wattisham Raf, United Kingdom
Distance from station: NNE 72km
Updated: 25/06/2021 02:50
Mostly cloudy
Mostly cloudy
 Wind from SSW
Wind: SSW 6 mph , 9 km/h
Temperature: 16°C
Dew Point: 15°C
Humidity: 94%
Barometer: 1016 hPa
Clouds: Mostly cloudy
Visibility: 6 miles , 10 km
Cloud details: Mostly cloudy 1524 m
2021/06/25 01:50 EGUW 250150Z AUTO 21005KT 9999 BKN050/// 16/15 Q1016
 
EGGW - Luton Airport, United Kingdom
Distance from station: WNW 76km
Updated: 25/06/2021 03:20
Clear
Clear
 Wind from WSW
Wind: WSW 10 mph , 17 km/h
Temperature: 14°C
Dew Point: 11°C
Humidity: 82%
Barometer: 1017 hPa
Clouds: Clear
Visibility: 6 miles , 10 km
2021/06/25 02:20 EGGW 250220Z AUTO 25009KT 9999 NCD 14/11 Q1017
EGSC - Cambridge, United Kingdom
Distance from station: NNW 81km
Updated: 24/06/2021 17:50
NOT Current
Partly cloudy
Partly cloudy
 Wind from W
Wind: W 9 mph , 15 km/h
Temperature: 18°C
Dew Point: 14°C
Humidity: 78%
Barometer: 1020 hPa
Clouds: Partly cloudy
Visibility: 6 miles , 10 km
Cloud details: Partly cloudy 579 m
Partly cloudy 1097 m
2021/06/24 16:50 EGSC 241650Z 26008KT 9999 SCT019 SCT036 18/14 Q1020